Time;durP1;ratioP1;P1;durP2;ratioP2;P2;SDS_P1;SDS_P2;PMS_P1;PMS_P2;Temp;Humidity;BMP_temperature;BMP_pressure;BME280_temperature;BME280_humidity;BME280_pressure;Samples;Min_cycle;Max_cycle;Signal;HPM_P1;HPM_P2
2021/08/03 00:01:48;;;;;;;5.00;1.37;;;;;;;17.43;62.82;96609.31;5070747;28;20516;-69
2021/08/03 00:04:15;;;;;;;3.53;1.90;;;;;;;17.40;63.05;96605.25;5057633;28;20561;-69
2021/08/03 00:06:47;;;;;;;2.23;1.70;;;;;;;17.53;62.50;96614.97;5074396;28;20444;-69
2021/08/03 00:09:13;;;;;;;1.50;1.40;;;;;;;17.71;61.97;96610.81;5074230;28;20457;-69
2021/08/03 00:11:43;;;;;;;4.67;1.50;;;;;;;17.76;61.87;96608.34;5073520;28;20458;-68
2021/08/03 00:14:09;;;;;;;2.10;1.40;;;;;;;17.83;61.79;96595.06;5074185;28;20425;-69
2021/08/03 00:16:36;;;;;;;3.80;1.60;;;;;;;17.80;61.46;96597.09;5074283;28;20448;-68
2021/08/03 00:19:02;;;;;;;1.90;1.47;;;;;;;17.84;61.75;96588.69;5064046;28;20438;-68
2021/08/03 00:21:28;;;;;;;5.63;1.60;;;;;;;17.83;61.58;96587.91;5058453;28;20546;-67
2021/08/03 00:23:55;;;;;;;1.43;1.33;;;;;;;17.81;61.68;96582.00;5066871;28;20670;-68
2021/08/03 00:26:21;;;;;;;3.07;1.50;;;;;;;17.58;62.24;96583.34;5057645;28;20202;-67
2021/08/03 00:28:49;;;;;;;1.77;1.67;;;;;;;17.55;62.38;96586.41;5074558;28;20429;-67
2021/08/03 00:31:18;;;;;;;3.30;1.80;;;;;;;17.48;62.83;96580.34;5072987;28;20440;-68
2021/08/03 00:33:45;;;;;;;2.20;1.80;;;;;;;17.61;62.49;96576.81;5066971;28;20954;-68
2021/08/03 00:36:12;;;;;;;1.83;1.73;;;;;;;17.59;62.39;96577.03;5062325;28;20475;-70
2021/08/03 00:38:37;;;;;;;2.23;1.80;;;;;;;17.51;62.76;96579.94;5073427;28;20448;-68
2021/08/03 00:41:06;;;;;;;1.70;1.60;;;;;;;17.47;63.12;96573.44;5073702;28;20848;-67
2021/08/03 00:43:32;;;;;;;2.43;1.77;;;;;;;17.49;63.07;96582.78;5074029;28;20181;-68
2021/08/03 00:45:57;;;;;;;3.30;1.90;;;;;;;17.39;63.56;96571.84;5074140;28;20445;-69
2021/08/03 00:48:23;;;;;;;4.93;1.53;;;;;;;17.35;63.74;96571.47;5073610;28;20602;-69
2021/08/03 00:50:49;;;;;;;2.07;1.70;;;;;;;17.35;63.82;96575.91;5073788;28;20224;-69
2021/08/03 00:53:15;;;;;;;7.10;1.77;;;;;;;17.44;63.42;96568.56;5069643;28;20776;-68
2021/08/03 00:55:41;;;;;;;2.70;1.90;;;;;;;17.47;63.21;96562.84;5045381;28;20199;-69
2021/08/03 00:58:07;;;;;;;2.37;1.97;;;;;;;17.22;63.99;96583.91;5070592;28;20194;-68
2021/08/03 01:00:33;;;;;;;3.20;1.70;;;;;;;17.34;63.71;96576.94;5069366;28;20495;-69
2021/08/03 01:02:59;;;;;;;4.50;1.70;;;;;;;17.37;63.53;96571.22;5069289;28;20421;-69
2021/08/03 01:05:28;;;;;;;4.40;1.60;;;;;;;17.49;63.35;96571.38;5073138;28;20763;-71
2021/08/03 01:08:00;;;;;;;2.40;1.70;;;;;;;17.45;63.32;96570.97;5064247;28;20193;-70
2021/08/03 01:10:34;;;;;;;2.10;1.60;;;;;;;17.48;63.47;96583.00;5072923;28;20417;-69
2021/08/03 01:13:14;;;;;;;4.63;1.80;;;;;;;17.53;63.09;96585.03;5072369;28;20455;-69
2021/08/03 01:16:05;;;;;;;2.30;1.87;;;;;;;17.49;63.24;96574.03;5058401;28;20447;-69
2021/08/03 01:18:53;;;;;;;3.00;1.73;;;;;;;17.50;63.13;96579.13;5069469;28;20472;-67
2021/08/03 01:21:35;;;;;;;1.80;1.70;;;;;;;17.51;63.23;96585.25;5070987;28;20843;-67
2021/08/03 01:24:19;;;;;;;3.17;1.97;;;;;;;17.24;64.04;96582.72;5071702;28;20551;-68
2021/08/03 01:27:00;;;;;;;1.80;1.70;;;;;;;17.16;64.27;96583.75;5062102;28;20441;-69
2021/08/03 01:29:26;;;;;;;1.87;1.70;;;;;;;17.16;64.44;96582.94;5072387;28;20499;-68
2021/08/03 01:31:56;;;;;;;1.90;1.60;;;;;;;17.08;64.58;96581.31;5073099;28;20440;-71
2021/08/03 01:34:25;;;;;;;2.60;1.70;;;;;;;17.07;64.51;96578.91;5071024;28;20429;-70
2021/08/03 01:36:52;;;;;;;11.13;1.90;;;;;;;17.06;64.63;96580.75;5072984;28;20455;-68
2021/08/03 01:39:20;;;;;;;3.03;1.97;;;;;;;17.00;64.87;96579.75;5069326;28;20908;-69
2021/08/03 01:41:48;;;;;;;3.47;2.13;;;;;;;16.92;65.15;96584.41;5049490;28;20425;-69
2021/08/03 01:44:15;;;;;;;4.47;1.80;;;;;;;16.95;64.87;96576.91;5072580;28;20535;-69
2021/08/03 01:46:42;;;;;;;2.53;1.70;;;;;;;16.95;64.95;96576.91;5073974;28;20445;-71
2021/08/03 01:49:10;;;;;;;3.53;2.00;;;;;;;16.99;64.83;96578.13;5069394;28;20463;-68
2021/08/03 01:51:35;;;;;;;9.13;1.80;;;;;;;16.99;64.74;96578.13;5071970;28;20429;-71
2021/08/03 01:54:02;;;;;;;2.97;1.70;;;;;;;16.99;64.97;96578.13;5071522;28;20451;-69
2021/08/03 01:56:29;;;;;;;2.33;1.80;;;;;;;17.03;64.81;96574.00;5056265;28;20202;-70
2021/08/03 01:58:54;;;;;;;1.83;1.73;;;;;;;16.88;65.04;96565.50;5071886;28;20421;-71
2021/08/03 02:01:20;;;;;;;2.37;2.17;;;;;;;16.82;65.21;96558.38;5071896;28;20844;-68
2021/08/03 02:03:47;;;;;;;2.47;1.63;;;;;;;16.85;65.51;96565.91;5071561;28;20535;-67
2021/08/03 02:06:15;;;;;;;3.20;1.70;;;;;;;17.07;64.74;96571.78;5071919;28;20221;-68
2021/08/03 02:08:41;;;;;;;3.50;1.70;;;;;;;17.27;63.91;96565.59;5070805;28;20417;-69
2021/08/03 02:11:07;;;;;;;2.33;1.80;;;;;;;17.34;63.72;96564.53;5062588;28;20835;-68
2021/08/03 02:13:33;;;;;;;2.30;1.93;;;;;;;17.40;63.37;96556.75;5071198;28;20420;-68
2021/08/03 02:15:58;;;;;;;5.93;2.33;;;;;;;17.41;63.48;96563.66;5072417;28;20194;-70
2021/08/03 02:18:24;;;;;;;2.63;1.80;;;;;;;17.43;63.22;96556.34;5064445;28;20175;-68
2021/08/03 02:20:50;;;;;;;1.80;1.70;;;;;;;17.54;63.04;96560.16;5071508;28;20661;-69
2021/08/03 02:23:15;;;;;;;7.43;1.77;;;;;;;17.46;62.84;96551.41;5072395;28;21006;-69
2021/08/03 02:25:41;;;;;;;5.87;1.73;;;;;;;17.53;62.67;96556.69;5056576;28;20709;-69
2021/08/03 02:28:07;;;;;;;2.80;1.60;;;;;;;17.57;62.58;96546.50;5069949;28;20186;-68
2021/08/03 02:30:34;;;;;;;2.90;1.57;;;;;;;17.58;62.35;96540.97;5071368;28;20566;-69
2021/08/03 02:33:08;;;;;;;12.20;1.63;;;;;;;17.53;62.52;96543.44;5073583;28;20988;-70
2021/08/03 02:35:42;;;;;;;6.50;1.97;;;;;;;17.49;62.47;96536.97;5061212;28;20436;-68
2021/08/03 02:38:10;;;;;;;1.57;1.47;;;;;;;17.56;62.19;96536.91;5074227;28;20514;-70
2021/08/03 02:40:37;;;;;;;2.10;1.90;;;;;;;17.35;62.63;96533.56;5074971;28;20428;-69
2021/08/03 02:43:03;;;;;;;2.70;1.90;;;;;;;17.24;62.93;96532.41;5074610;28;20509;-69
2021/08/03 02:45:29;;;;;;;3.20;1.73;;;;;;;17.19;63.22;96525.09;5066474;28;20515;-68
2021/08/03 02:47:58;;;;;;;4.10;1.90;;;;;;;17.27;63.16;96529.31;5073922;28;20213;-69
2021/08/03 02:50:26;;;;;;;3.50;2.00;;;;;;;17.33;62.70;96528.47;5074138;28;20416;-72
2021/08/03 02:52:55;;;;;;;3.10;1.80;;;;;;;17.40;62.70;96528.44;5058108;28;20823;-69
2021/08/03 02:55:38;;;;;;;2.97;1.97;;;;;;;17.41;62.70;96522.13;5059694;28;20532;-69
2021/08/03 02:58:06;;;;;;;2.90;1.93;;;;;;;17.38;62.70;96538.44;5075493;28;20511;-69
2021/08/03 03:00:34;;;;;;;3.10;2.00;;;;;;;17.38;62.67;96532.34;5074481;28;20441;-69
2021/08/03 03:03:02;;;;;;;2.57;2.00;;;;;;;17.39;62.70;96524.16;5075459;28;20425;-69
2021/08/03 03:05:29;;;;;;;2.20;2.00;;;;;;;17.32;62.82;96523.41;5069278;28;20459;-69
2021/08/03 03:08:06;;;;;;;7.33;1.90;;;;;;;17.20;63.05;96516.09;5070009;28;20763;-69
2021/08/03 03:10:33;;;;;;;2.10;1.90;;;;;;;17.20;62.99;96533.84;5074644;28;20413;-68
2021/08/03 03:13:25;;;;;;;2.20;2.10;;;;;;;17.23;62.93;96522.00;5074592;28;20417;-71
2021/08/03 03:15:51;;;;;;;2.57;2.07;;;;;;;17.19;63.24;96522.44;5068162;28;20502;-70
2021/08/03 03:18:18;;;;;;;3.20;1.97;;;;;;;17.24;62.96;96526.28;5063586;28;20927;-69
2021/08/03 03:20:45;;;;;;;2.93;2.00;;;;;;;17.23;63.14;96525.47;5069780;28;20953;-69
2021/08/03 03:23:12;;;;;;;3.13;2.37;;;;;;;17.18;63.18;96527.94;5072659;28;20431;-69
2021/08/03 03:25:38;;;;;;;1.60;1.50;;;;;;;17.17;63.25;96524.50;5057977;28;20888;-70
2021/08/03 03:28:05;;;;;;;4.20;1.93;;;;;;;17.21;63.08;96524.88;5073282;28;20540;-70
2021/08/03 03:30:31;;;;;;;2.10;2.00;;;;;;;17.20;63.07;96512.66;5073475;28;20281;-68
2021/08/03 03:33:02;;;;;;;9.73;1.93;;;;;;;17.16;63.26;96514.09;5058338;28;20516;-69
2021/08/03 03:35:28;;;;;;;2.37;2.17;;;;;;;17.12;63.33;96515.56;5048160;28;20273;-69
2021/08/03 03:37:54;;;;;;;2.07;1.90;;;;;;;17.10;63.34;96509.66;5071617;28;20432;-70
2021/08/03 03:40:22;;;;;;;4.90;2.50;;;;;;;17.06;63.53;96511.09;5070679;28;20423;-69
2021/08/03 03:42:49;;;;;;;3.60;2.17;;;;;;;17.01;63.65;96501.94;5040827;28;20674;-68
2021/08/03 03:45:16;;;;;;;5.63;2.77;;;;;;;17.05;63.72;96505.00;5050884;28;21010;-69
2021/08/03 03:47:52;;;;;;;2.50;1.83;;;;;;;17.10;63.63;96499.06;5051340;28;20425;-68
2021/08/03 03:50:23;;;;;;;7.50;2.10;;;;;;;17.01;63.58;96501.13;5033580;28;20429;-69
2021/08/03 03:53:06;;;;;;;2.60;2.10;;;;;;;16.91;63.74;96498.09;5053828;28;20433;-69
2021/08/03 03:55:33;;;;;;;3.50;2.20;;;;;;;16.96;64.01;96503.59;5043115;28;20492;-68
2021/08/03 03:58:00;;;;;;;2.70;2.00;;;;;;;17.00;63.72;96503.00;5051399;28;20429;-68
2021/08/03 04:00:26;;;;;;;3.87;2.03;;;;;;;16.99;63.56;96493.41;5054717;28;20923;-69
2021/08/03 04:02:53;;;;;;;3.30;1.70;;;;;;;17.00;63.40;96500.34;5055940;28;20422;-68
2021/08/03 04:05:19;;;;;;;5.93;2.20;;;;;;;17.00;63.42;96499.50;5050232;28;20960;-69
2021/08/03 04:07:49;;;;;;;2.93;2.00;;;;;;;17.03;63.42;96493.81;5052084;28;20550;-69
2021/08/03 04:10:17;;;;;;;1.87;1.67;;;;;;;17.09;63.17;96492.94;5052219;28;20193;-69
2021/08/03 04:12:43;;;;;;;11.13;2.00;;;;;;;17.10;63.15;96499.06;5053630;28;20826;-69
2021/08/03 04:15:09;;;;;;;4.43;1.93;;;;;;;17.08;63.00;96490.53;5051451;28;20438;-69
2021/08/03 04:17:35;;;;;;;5.20;1.83;;;;;;;17.08;62.74;96493.16;5041182;28;20179;-69
2021/08/03 04:20:01;;;;;;;2.37;2.17;;;;;;;17.11;62.81;96490.09;5043296;28;20422;-69
2021/08/03 04:22:28;;;;;;;2.40;2.20;;;;;;;16.91;63.31;96484.88;5051595;28;20785;-69
2021/08/03 04:24:53;;;;;;;2.60;2.30;;;;;;;16.89;63.25;96493.00;5051402;28;20206;-68
2021/08/03 04:27:19;;;;;;;2.37;1.77;;;;;;;16.91;62.96;96490.97;5051625;28;20464;-69
2021/08/03 04:29:44;;;;;;;6.80;2.30;;;;;;;17.03;62.55;96489.31;5052013;28;20248;-69
2021/08/03 04:32:10;;;;;;;3.10;1.90;;;;;;;17.01;62.54;96496.63;5051480;28;20180;-69
2021/08/03 04:34:36;;;;;;;3.83;1.93;;;;;;;17.07;62.46;96494.19;5049194;28;20186;-69
2021/08/03 04:37:01;;;;;;;4.63;2.37;;;;;;;16.97;62.21;96499.91;5058983;28;20225;-69
2021/08/03 04:39:28;;;;;;;2.63;1.83;;;;;;;16.90;62.51;96499.91;5051015;28;20203;-70
2021/08/03 04:41:55;;;;;;;2.40;2.20;;;;;;;16.90;62.49;96494.63;5053522;28;20187;-69
2021/08/03 04:44:21;;;;;;;4.97;1.83;;;;;;;17.00;62.04;96502.16;5052367;28;20453;-69
2021/08/03 04:46:46;;;;;;;3.60;2.20;;;;;;;16.93;61.99;96494.22;5057150;28;20753;-68
2021/08/03 04:49:12;;;;;;;2.10;1.90;;;;;;;17.11;61.70;96496.19;5051021;28;20729;-69
2021/08/03 04:51:38;;;;;;;2.47;1.70;;;;;;;17.09;61.67;96497.44;5051399;28;20187;-70
2021/08/03 04:54:03;;;;;;;2.13;1.90;;;;;;;17.11;61.86;96485.59;5057967;28;20685;-69
2021/08/03 04:56:30;;;;;;;6.33;2.27;;;;;;;17.21;61.46;96490.47;5049530;28;20244;-69
2021/08/03 04:58:55;;;;;;;4.33;1.97;;;;;;;17.30;61.44;96493.69;5051365;28;20183;-70
2021/08/03 05:01:21;;;;;;;1.83;1.67;;;;;;;17.35;61.13;96491.19;5048951;28;20512;-69
2021/08/03 05:03:46;;;;;;;3.27;1.73;;;;;;;17.44;60.89;96481.97;5045705;28;20236;-69
2021/08/03 05:06:12;;;;;;;8.20;2.00;;;;;;;17.46;60.95;96487.06;5051876;28;20233;-70
2021/08/03 05:08:37;;;;;;;3.77;1.80;;;;;;;17.42;60.55;96485.84;5052080;28;20201;-68
2021/08/03 05:11:03;;;;;;;2.90;1.60;;;;;;;17.49;60.50;96478.69;5051877;28;20266;-67
2021/08/03 05:13:28;;;;;;;2.17;1.97;;;;;;;17.50;60.79;96481.09;5051217;28;20482;-68
2021/08/03 05:15:54;;;;;;;1.60;1.50;;;;;;;17.57;60.44;96483.72;5051789;28;20263;-68
2021/08/03 05:18:20;;;;;;;2.33;1.83;;;;;;;17.60;60.11;96487.75;5048742;28;20778;-67
2021/08/03 05:20:45;;;;;;;1.80;1.60;;;;;;;17.57;60.44;96477.63;5052836;28;20190;-69
2021/08/03 05:23:12;;;;;;;2.80;1.90;;;;;;;17.63;60.31;96482.88;5051104;28;20183;-69
2021/08/03 05:25:37;;;;;;;2.80;1.67;;;;;;;17.68;60.03;96478.75;5051453;28;20206;-68
2021/08/03 05:28:03;;;;;;;2.93;1.80;;;;;;;17.78;59.88;96476.41;5030151;28;20423;-69
2021/08/03 05:30:29;;;;;;;4.43;1.73;;;;;;;17.81;59.96;96478.66;5051273;28;20654;-70
2021/08/03 05:32:54;;;;;;;2.00;1.80;;;;;;;17.86;59.90;96478.81;5049786;28;20183;-68
2021/08/03 05:35:20;;;;;;;1.97;1.87;;;;;;;17.90;59.65;96476.53;5061624;28;20665;-69
2021/08/03 05:37:45;;;;;;;2.03;1.83;;;;;;;17.92;59.14;96475.28;5056606;28;20195;-69
2021/08/03 05:40:12;;;;;;;2.10;2.00;;;;;;;17.94;59.23;96465.28;5051000;28;20179;-69
2021/08/03 05:42:39;;;;;;;2.10;1.47;;;;;;;17.93;59.39;96471.63;5047973;28;20678;-67
2021/08/03 05:45:05;;;;;;;4.80;1.90;;;;;;;17.92;58.99;96475.28;5026529;28;20459;-69
2021/08/03 05:47:30;;;;;;;5.53;2.10;;;;;;;17.65;59.33;96475.50;5063535;28;20420;-69
2021/08/03 05:49:56;;;;;;;2.03;1.60;;;;;;;17.92;58.79;96483.25;5054565;28;20421;-69
2021/08/03 05:52:22;;;;;;;7.93;2.00;;;;;;;18.01;58.67;96473.22;5054603;28;20186;-69
2021/08/03 05:54:47;;;;;;;3.50;1.70;;;;;;;18.05;58.51;96476.22;5070812;28;20178;-69
2021/08/03 05:57:13;;;;;;;7.33;2.40;;;;;;;18.22;57.80;96481.78;5070796;28;20186;-69
2021/08/03 05:59:38;;;;;;;2.50;1.80;;;;;;;18.31;57.86;96485.78;5069615;28;20197;-67
2021/08/03 06:02:04;;;;;;;5.23;1.80;;;;;;;18.36;57.48;96480.63;5070834;28;20186;-68
2021/08/03 06:04:29;;;;;;;3.00;1.90;;;;;;;18.37;57.53;96482.25;5069902;28;20230;-68
2021/08/03 06:06:56;;;;;;;6.47;2.73;;;;;;;18.56;56.83;96491.03;5071191;28;20210;-68
2021/08/03 06:09:24;;;;;;;2.07;1.90;;;;;;;18.72;56.59;96491.47;5073248;28;20584;-68
2021/08/03 06:11:52;;;;;;;2.30;1.90;;;;;;;18.64;57.09;96492.59;5073075;28;20908;-70
2021/08/03 06:14:26;;;;;;;7.70;1.60;;;;;;;18.87;56.40;96488.44;5039976;28;20511;-69
2021/08/03 06:16:53;;;;;;;6.23;1.47;;;;;;;18.92;56.10;96485.13;5041330;28;20440;-70
2021/08/03 06:19:19;;;;;;;1.87;1.77;;;;;;;19.07;55.74;96480.25;5065821;28;20414;-70
2021/08/03 06:21:45;;;;;;;6.47;1.87;;;;;;;19.22;55.29;96487.81;5064292;28;20452;-70
2021/08/03 06:24:11;;;;;;;2.23;1.70;;;;;;;19.34;55.06;96485.22;5073838;28;20452;-68
2021/08/03 06:26:36;;;;;;;1.70;1.60;;;;;;;19.51;54.69;96484.59;5072786;28;21194;-69
2021/08/03 06:29:02;;;;;;;1.67;1.57;;;;;;;19.60;54.12;96480.56;5073921;28;20261;-69
2021/08/03 06:31:28;;;;;;;2.67;1.90;;;;;;;19.47;53.24;96481.53;5056286;28;20269;-68
2021/08/03 06:33:54;;;;;;;2.03;1.83;;;;;;;19.64;53.29;96484.38;5072846;28;20251;-68
2021/08/03 06:36:20;;;;;;;3.73;1.50;;;;;;;19.83;52.13;96479.81;5074141;28;20483;-69
2021/08/03 06:38:45;;;;;;;2.47;1.60;;;;;;;20.05;51.05;96488.03;5073903;28;20661;-69
2021/08/03 06:41:16;;;;;;;2.67;1.63;;;;;;;20.21;51.24;96483.91;5073908;28;20660;-69
2021/08/03 06:43:58;;;;;;;6.67;1.33;;;;;;;20.72;49.52;96473.53;5072595;28;20182;-69
2021/08/03 06:46:25;;;;;;;2.80;1.40;;;;;;;21.05;48.11;96473.09;5066270;28;20440;-69
2021/08/03 06:49:02;;;;;;;1.33;1.23;;;;;;;21.23;48.24;96470.28;5065917;28;20444;-68
2021/08/03 06:51:34;;;;;;;3.03;1.40;;;;;;;21.72;46.90;96464.50;5048220;28;20416;-68
2021/08/03 06:54:03;;;;;;;1.93;1.50;;;;;;;21.63;46.26;96465.91;5074212;28;20428;-69
2021/08/03 06:56:32;;;;;;;3.30;2.33;;;;;;;21.20;47.44;96470.75;5073152;28;20479;-69
2021/08/03 06:59:10;;;;;;;2.63;2.43;;;;;;;21.55;46.53;96471.63;5072746;28;20459;-70
2021/08/03 07:01:46;;;;;;;1.60;1.20;;;;;;;21.59;46.90;96467.44;5060006;28;20495;-69
2021/08/03 07:04:15;;;;;;;2.47;1.40;;;;;;;21.75;46.71;96477.31;5064060;28;20516;-68
2021/08/03 07:06:43;;;;;;;1.50;1.40;;;;;;;21.83;46.89;96470.78;5073824;28;20444;-70
2021/08/03 07:09:09;;;;;;;1.13;1.00;;;;;;;22.01;46.66;96471.59;5065245;28;20436;-69
2021/08/03 07:11:35;;;;;;;3.30;1.40;;;;;;;21.93;46.96;96473.59;5072268;28;20931;-67
2021/08/03 07:14:01;;;;;;;2.43;1.60;;;;;;;22.03;47.31;96475.63;5073765;28;20186;-70
2021/08/03 07:16:28;;;;;;;1.50;1.27;;;;;;;22.02;46.85;96473.22;5072470;28;20202;-70
2021/08/03 07:18:57;;;;;;;6.70;1.40;;;;;;;21.70;47.50;96473.75;5064576;28;20813;-68
2021/08/03 07:21:26;;;;;;;3.00;1.30;;;;;;;21.87;46.98;96471.91;5062932;28;20428;-69
2021/08/03 07:23:56;;;;;;;7.53;1.47;;;;;;;21.79;47.23;96475.00;5073667;28;20467;-69
2021/08/03 07:26:23;;;;;;;1.60;1.30;;;;;;;21.92;47.42;96479.19;5074252;28;20444;-69
2021/08/03 07:28:49;;;;;;;1.43;1.30;;;;;;;21.65;47.94;96479.81;5073342;28;20507;-70
2021/08/03 07:31:15;;;;;;;3.83;1.57;;;;;;;21.99;47.16;96477.16;5073957;28;20524;-68
2021/08/03 07:33:40;;;;;;;1.93;1.53;;;;;;;22.19;47.03;96479.31;5073667;28;20255;-68
2021/08/03 07:36:06;;;;;;;1.40;1.30;;;;;;;22.11;46.95;96487.75;5073247;28;20194;-69
2021/08/03 07:38:32;;;;;;;2.70;1.40;;;;;;;21.85;47.86;96484.69;5072317;28;20214;-68
2021/08/03 07:40:58;;;;;;;1.60;1.50;;;;;;;21.58;48.29;96485.28;5072927;28;20269;-69
2021/08/03 07:43:23;;;;;;;1.93;1.50;;;;;;;21.40;48.84;96488.97;5064754;28;20486;-68
2021/08/03 07:45:49;;;;;;;1.60;1.50;;;;;;;21.58;48.83;96479.94;5072307;28;20224;-69
2021/08/03 07:48:15;;;;;;;6.63;1.60;;;;;;;21.98;47.84;96478.22;5073208;28;20661;-70
2021/08/03 07:50:41;;;;;;;7.27;1.40;;;;;;;22.00;47.62;96475.31;5067606;28;20427;-68
2021/08/03 07:53:07;;;;;;;3.47;1.77;;;;;;;22.53;47.33;96483.81;5064315;28;20703;-69
2021/08/03 07:55:32;;;;;;;6.53;1.70;;;;;;;22.73;46.11;96487.84;5072835;28;20234;-69
2021/08/03 07:57:58;;;;;;;6.63;1.97;;;;;;;22.90;46.03;96488.56;5064867;28;20194;-70
2021/08/03 08:00:24;;;;;;;6.03;1.47;;;;;;;23.02;45.66;96485.78;5071733;28;20670;-69
2021/08/03 08:02:49;;;;;;;2.03;1.70;;;;;;;23.23;45.07;96496.72;5065661;28;20193;-70
2021/08/03 08:05:15;;;;;;;3.30;1.70;;;;;;;23.25;45.25;96495.38;5070856;28;20241;-70
2021/08/03 08:07:40;;;;;;;3.00;2.63;;;;;;;23.02;45.89;96501.81;5073312;28;20185;-69
2021/08/03 08:10:06;;;;;;;3.30;1.60;;;;;;;23.36;45.03;96493.63;5073559;28;20209;-71
2021/08/03 08:12:32;;;;;;;1.60;1.50;;;;;;;22.66;47.31;96496.03;5067926;28;20183;-69
2021/08/03 08:14:58;;;;;;;1.90;1.80;;;;;;;22.95;46.02;96490.47;5068947;28;20794;-68
2021/08/03 08:17:23;;;;;;;3.93;1.57;;;;;;;23.00;45.89;96494.00;5073000;28;20208;-69
2021/08/03 08:19:49;;;;;;;2.30;1.67;;;;;;;23.05;46.46;96495.97;5052282;28;20184;-67
2021/08/03 08:22:15;;;;;;;2.57;1.80;;;;;;;23.01;46.61;96490.28;5059184;28;20600;-69
2021/08/03 08:24:40;;;;;;;2.03;1.53;;;;;;;23.11;46.41;96492.28;5072736;28;20217;-68
2021/08/03 08:27:06;;;;;;;3.10;2.30;;;;;;;23.03;46.55;96492.72;5072848;28;20182;-70
2021/08/03 08:29:32;;;;;;;3.10;1.70;;;;;;;;;;5073273;28;20323;-67
2021/08/03 08:31:57;;;;;;;1.70;1.40;;;;;;;23.17;46.19;96493.13;5072788;28;20496;-69
2021/08/03 08:34:23;;;;;;;3.40;1.77;;;;;;;23.35;46.44;96500.03;5073365;28;20539;-69
2021/08/03 08:36:50;;;;;;;4.50;1.60;;;;;;;23.56;45.68;96495.72;5065002;28;20285;-68
2021/08/03 08:39:16;;;;;;;3.50;1.90;;;;;;;23.44;46.09;96498.53;5075471;28;20383;-69
2021/08/03 08:41:42;;;;;;;1.90;1.77;;;;;;;23.49;45.87;96502.31;5071250;28;20426;-67
2021/08/03 08:44:10;;;;;;;1.77;1.63;;;;;;;23.28;46.55;96494.09;5080523;28;20425;-69
2021/08/03 08:46:37;;;;;;;2.63;2.13;;;;;;;22.66;47.04;96496.81;5082485;28;20501;-68
2021/08/03 08:49:04;;;;;;;1.70;1.40;;;;;;;22.82;46.12;96497.81;5080704;28;20425;-68
2021/08/03 08:51:29;;;;;;;1.50;1.40;;;;;;;22.81;45.80;96496.19;5069427;28;20478;-68
2021/08/03 08:53:56;;;;;;;1.87;1.53;;;;;;;23.02;45.57;96491.13;5079652;28;20790;-67
2021/08/03 08:56:22;;;;;;;3.10;1.50;;;;;;;23.14;45.26;96483.78;5074586;28;20206;-69
2021/08/03 08:58:47;;;;;;;1.83;1.33;;;;;;;23.85;44.15;96491.94;5080089;28;20524;-68
2021/08/03 09:01:13;;;;;;;1.30;1.20;;;;;;;23.94;44.00;96495.78;5073081;28;20664;-68
2021/08/03 09:03:40;;;;;;;3.80;1.60;;;;;;;23.28;45.07;96504.78;5056464;28;20174;-67
2021/08/03 09:06:06;;;;;;;1.90;1.70;;;;;;;23.40;45.67;96505.44;5054425;28;20221;-68
2021/08/03 09:08:35;;;;;;;3.43;1.87;;;;;;;23.76;44.85;96507.63;5067165;28;20521;-68
2021/08/03 09:11:27;;;;;;;2.63;1.70;;;;;;;23.19;46.16;96506.28;5044303;28;20511;-69
2021/08/03 09:13:57;;;;;;;2.63;1.87;;;;;;;22.82;47.25;96508.50;5041295;28;20433;-70
2021/08/03 09:16:42;;;;;;;3.50;1.33;;;;;;;21.84;49.49;96520.41;5070344;28;20444;-69
2021/08/03 09:19:26;;;;;;;2.60;2.40;;;;;;;21.43;50.58;96527.63;5061459;28;20421;-68
2021/08/03 09:22:15;;;;;;;3.70;1.70;;;;;;;21.10;53.50;96537.97;5062299;28;20432;-68
2021/08/03 09:24:42;;;;;;;2.47;1.87;;;;;;;20.98;54.24;96540.66;5072159;28;20471;-67
2021/08/03 09:27:08;;;;;;;3.73;1.90;;;;;;;21.06;55.48;96538.66;5071197;28;20431;-68
2021/08/03 09:29:46;;;;;;;4.07;2.60;;;;;;;21.26;55.49;96543.59;5064904;28;20421;-69
2021/08/03 09:32:12;;;;;;;4.93;2.40;;;;;;;21.25;56.12;96540.13;5055477;28;20185;-69
2021/08/03 09:34:37;;;;;;;5.63;2.97;;;;;;;21.24;57.26;96537.69;5072119;28;20944;-68
2021/08/03 09:37:03;;;;;;;6.70;3.10;;;;;;;20.78;57.09;96542.91;5063024;28;20449;-70
2021/08/03 09:39:37;;;;;;;2.87;2.40;;;;;;;19.34;61.85;96549.78;5070806;28;20208;-69
2021/08/03 09:42:12;;;;;;;2.27;1.60;;;;;;;18.97;63.79;96563.09;5071104;28;20185;-69
2021/08/03 09:44:54;;;;;;;5.47;2.50;;;;;;;19.35;62.02;96566.53;5069574;28;20463;-67
2021/08/03 09:47:21;;;;;;;2.13;2.03;;;;;;;19.25;63.18;96567.06;5062822;28;20420;-69
2021/08/03 09:49:49;;;;;;;5.23;1.80;;;;;;;19.69;62.45;96556.25;5055325;28;20504;-69
2021/08/03 09:52:20;;;;;;;4.80;1.93;;;;;;;19.50;63.14;96558.16;5059261;28;20496;-69
2021/08/03 09:54:45;;;;;;;2.70;1.90;;;;;;;18.83;66.38;96562.41;5058987;28;20432;-71
2021/08/03 09:57:25;;;;;;;3.83;1.90;;;;;;;18.70;66.74;96567.84;5064017;28;20417;-70
2021/08/03 09:59:52;;;;;;;2.07;1.87;;;;;;;18.69;66.84;96567.03;5071556;28;20552;-68
2021/08/03 10:02:21;;;;;;;3.00;2.33;;;;;;;18.39;67.28;96565.06;5071733;28;20424;-70
2021/08/03 10:04:47;;;;;;;4.43;2.90;;;;;;;18.82;66.47;96562.63;5070991;28;20486;-70
2021/08/03 10:07:14;;;;;;;7.17;5.10;;;;;;;18.92;67.25;96538.22;5072363;28;20420;-69
2021/08/03 10:09:41;;;;;;;13.17;5.90;;;;;;;18.79;68.12;96542.63;5055899;28;20477;-67
2021/08/03 10:12:07;;;;;;;3.83;2.10;;;;;;;18.34;69.38;96534.94;5070753;28;20452;-69
2021/08/03 10:14:33;;;;;;;42.43;12.00;;;;;;;18.20;69.84;96548.31;5072017;28;20409;-68
2021/08/03 10:16:59;;;;;;;9.10;3.80;;;;;;;18.50;67.90;96545.00;5072387;28;20206;-70
2021/08/03 10:19:30;;;;;;;25.60;7.07;;;;;;;19.28;66.47;96552.53;5064279;28;20210;-68
2021/08/03 10:21:58;;;;;;;4.80;2.40;;;;;;;19.40;65.30;96555.22;5059843;28;20270;-70
2021/08/03 10:24:35;;;;;;;4.20;2.40;;;;;;;19.40;64.80;96557.88;5067870;28;20861;-68
2021/08/03 10:27:05;;;;;;;7.23;4.23;;;;;;;19.17;65.57;96559.41;5050436;28;20448;-69
2021/08/03 10:29:32;;;;;;;38.70;11.90;;;;;;;19.45;65.09;96556.19;5056813;28;20836;-70
2021/08/03 10:31:58;;;;;;;47.30;12.90;;;;;;;19.42;65.33;96546.00;5066566;28;20433;-69
2021/08/03 10:34:42;;;;;;;18.30;6.30;;;;;;;19.88;63.34;96543.75;5064412;28;20417;-67
2021/08/03 10:37:11;;;;;;;9.00;3.30;;;;;;;20.48;61.83;96541.94;5066418;28;20201;-70
2021/08/03 10:39:55;;;;;;;5.43;2.50;;;;;;;20.93;60.50;96531.75;5071008;28;20899;-68
2021/08/03 10:42:23;;;;;;;3.80;2.30;;;;;;;21.36;60.43;96537.66;5054869;28;20413;-67
2021/08/03 10:44:58;;;;;;;3.63;2.40;;;;;;;21.48;59.75;96527.75;5071245;28;20543;-66
2021/08/03 10:47:33;;;;;;;3.67;2.37;;;;;;;21.66;59.07;96517.97;5071204;28;20439;-67
2021/08/03 10:50:05;;;;;;;2.73;2.17;;;;;;;21.84;59.13;96516.94;5070657;28;20427;-69
2021/08/03 10:52:51;;;;;;;3.47;2.10;;;;;;;21.81;59.62;96494.22;5062741;28;20426;-69
2021/08/03 10:55:36;;;;;;;3.93;2.03;;;;;;;21.71;59.62;96494.88;5076819;28;20486;-68
2021/08/03 10:58:15;;;;;;;3.87;2.30;;;;;;;21.36;60.74;96487.81;5070656;28;20425;-69
2021/08/03 11:00:44;;;;;;;4.30;1.90;;;;;;;21.74;59.56;96481.03;5056002;28;20432;-68
2021/08/03 11:03:35;;;;;;;2.27;2.00;;;;;;;21.73;60.53;96482.09;5076319;28;20421;-69
2021/08/03 11:06:03;;;;;;;7.80;2.50;;;;;;;22.07;60.50;96487.44;5075044;28;20467;-69
2021/08/03 11:08:29;;;;;;;7.63;2.60;;;;;;;22.42;58.93;96487.41;5050272;28;20413;-69
2021/08/03 11:10:57;;;;;;;5.73;2.10;;;;;;;22.60;59.41;96479.13;5074191;28;20413;-68
2021/08/03 11:13:42;;;;;;;1.93;1.83;;;;;;;22.58;57.40;96481.22;5073921;28;20427;-68
2021/08/03 11:16:23;;;;;;;3.90;2.27;;;;;;;22.59;59.51;96482.84;5073749;28;20436;-68
2021/08/03 11:19:00;;;;;;;2.20;1.93;;;;;;;22.95;57.77;96485.13;5062442;28;20520;-68
2021/08/03 11:21:28;;;;;;;5.67;2.67;;;;;;;22.96;56.74;96484.09;5063921;28;21015;-67
2021/08/03 11:24:14;;;;;;;3.20;1.67;;;;;;;22.36;56.00;96473.97;5067094;28;20426;-68
2021/08/03 11:26:49;;;;;;;4.23;1.70;;;;;;;22.53;54.61;96471.28;5059446;28;21123;-67
2021/08/03 11:29:15;;;;;;;3.70;1.70;;;;;;;23.13;52.58;96475.97;5074168;28;20423;-68
2021/08/03 11:31:48;;;;;;;2.33;1.70;;;;;;;23.13;52.30;96476.81;5074166;28;20472;-67
2021/08/03 11:34:18;;;;;;;3.97;2.30;;;;;;;23.07;51.97;96466.31;5056053;28;20843;-68
2021/08/03 11:36:56;;;;;;;4.17;2.90;;;;;;;22.95;53.36;96466.44;5074357;28;20441;-67
2021/08/03 11:39:27;;;;;;;2.93;2.47;;;;;;;23.52;51.94;96462.50;5076909;28;20475;-68
2021/08/03 11:41:53;;;;;;;2.53;1.73;;;;;;;23.08;50.12;96457.25;5076894;28;20492;-69